Clover Valley, Nevada Weather observations

Data are for 10 minute period ending at time listed.
 Day   Time   Solar   Ave.   Ave.  Ave.  Vector  Max.   Baro.   Total    
  of    of     Rad.   Air    Rel.  Wind   Wind   Wind  Press.  Precip.   
Year   Day            Temp.  Hum.  Speed  Dir.   Gust                    
2015   (PST)  Kw/m2    F      %     mph   deg.    mph    mb.     in.     
-------------------------------------------------------------------------
 143   19:20   0.00   48.0    86    9.1   316    13.1   824.9    0.01 
 143   19:30   0.00   47.7    86    7.6   304    11.0   824.8    0.01 
 143   19:40   0.00   47.6    87    6.6   287     8.6   824.6    0.01 
 143   19:50   0.00   47.7    86    6.9   265     9.4   824.4    0.00 
 143   20:00   0.00   47.8    85    2.3   305     6.2   824.5    0.00 
 143   20:10   0.00   47.8    87    2.3   356     3.3   824.6    0.00 
 143   20:20   0.00   47.7    89    5.6    49    10.2   824.8    0.00 
 143   20:30   0.00   47.6    91    5.7    39     7.3   824.8    0.00 
 143   20:40   0.00   47.9    90    5.9    24     7.7   824.9    0.00 
 143   20:50   0.00   48.0    89    5.3    20     7.0   824.9    0.00 
 143   21:00   0.00   48.1    87    4.5     9     6.6   824.9    0.00 
 143   21:10   0.00   47.9    88    3.3   319     5.3   824.9    0.00 
 143   21:20   0.00   47.5    90    2.4   267     4.7   824.9    0.00 
 143   21:30   0.00   47.6    89    2.1   285     4.7   825.0    0.00 
 143   21:40   0.00   47.6    88    2.0   229     3.5   825.0    0.00 
 143   21:50   0.00   47.7    88    2.5   244     6.4   825.1    0.00 
 143   22:00   0.00   48.2    83    5.7   280    13.3   825.2    0.00 
 143   22:10   0.00   48.4    82    4.6   353    10.0   825.0    0.00 
 143   22:20   0.00   47.6    88    5.3   296     6.9   825.0    0.00 
 143   22:30   0.00   47.2    89    5.2   327     8.3   825.1    0.00 
 143   22:40   0.00   47.4    88    4.6   349     8.0   825.1    0.00 
 143   22:50   0.00   47.3    88    3.5   341     5.2   825.1    0.00 
 143   23:00   0.00   47.3    89    1.4   331     3.5   825.1    0.00 
 143   23:10   0.00   47.3    89    1.4   348     2.6   825.1    0.00 
 143   23:20   0.00   47.4    88    2.2   358     3.9   825.2    0.00 
 143   23:30   0.00   47.3    90    2.9   254     4.2   825.2    0.00 
 143   23:40   0.00   47.2    89    3.4   280     4.2   825.1    0.00 
 143   23:50   0.00   47.3    88    4.1   328     6.4   825.1    0.00 
 144    0:00   0.00   47.4    88    3.6   319     5.2   825.1    0.00 
 144    0:10   0.00   46.8    91    3.0   332     4.9   825.1    0.00 
 144    0:20   0.00   46.8    91    2.2   321     3.5   825.0    0.00 
 144    0:30   0.00   46.7    91    2.2   283     3.2   825.0    0.00 
 144    0:40   0.00   46.7    91    3.0   281     3.9   825.0    0.00 
 144    0:50   0.00   46.9    90    1.8   299     2.6   824.9    0.00 
 144    1:00   0.00   46.9    88    2.5   336     5.3   824.9    0.00 
 144    1:10   0.00   47.1    87    3.4   342     5.6   824.8    0.00 
 144    1:20   0.00   47.1    87    3.8   360     6.8   824.7    0.00 
 144    1:30   0.00   47.0    88    1.9   345     3.7   824.7    0.00 
 144    1:40   0.00   46.9    89    2.0   335     3.2   824.7    0.00 
 144    1:50   0.00   46.7    90    1.9   294     2.9   824.7    0.00 
 144    2:00   0.00   46.6    91    2.7   221     4.3   824.6    0.00 
 144    2:10   0.00   46.6    92    3.9   166     5.0   824.7    0.00 
 144    2:20   0.00   46.6    92    2.9   167     4.0   824.6    0.00 
 144    2:30   0.00   46.5    91    2.5   177     3.4   824.6    0.00 
 144    2:40   0.00   46.7    90    2.3   292     3.9   824.6    0.00 
 144    2:50   0.00   46.8    90    1.8   286     3.9   824.6    0.00 
 144    3:00   0.00   46.7    91    0.7   262     1.5   824.6    0.00 
 144    3:10   0.00   46.6    92    0.8   348     2.3   824.7    0.00 
 144    3:20   0.00   46.5    92    1.2   276     2.2   824.6    0.00 
 144    3:30   0.00   46.4    92    1.3   235     3.3   824.6    0.00 
 144    3:40   0.00   46.5    92    1.3   146     3.1   824.7    0.01 
 144    3:50   0.00   46.4    93    1.6   121     2.4   824.6    0.00 
 144    4:00   0.00   46.3    93    1.1   293     2.1   824.7    0.00 
 144    4:10   0.00   46.1    93    1.3   248     2.0   824.6    0.00 
 144    4:20   0.00   46.2    94    2.8   228     3.9   824.6    0.00 
 144    4:30   0.01   46.2    94    1.6   178     2.5   824.7    0.00 
 144    4:40   0.03   47.0    93    0.7   196     2.1   824.7    0.00 
 144    4:50   0.01   46.9    91    0.7   287     2.0   824.7    0.00 
 144    5:00   0.02   47.2    89    2.0   320     3.4   824.8    0.00 
 144    5:10   0.02   47.1    91    3.5   246     4.8   824.8    0.00 
 144    5:20   0.02   46.9    93    3.2   225     4.7   824.9    0.00 
 144    5:30   0.04   47.0    92    3.7   211     4.8   824.9    0.00 
 144    5:40   0.06   47.3    92    3.2   164     4.5   824.9    0.00 
 144    5:50   0.13   47.8    91    2.7   179     3.8   825.0    0.00 
 144    6:00   0.26   49.5    87    2.7   215     3.9   825.1    0.00 
 144    6:10   0.29   50.2    84    2.3   237     4.9   825.1    0.00 
 144    6:20   0.15   50.0    81    2.2   288     5.0   825.2    0.00 
 144    6:30   0.13   49.7    81    2.6   312     6.6   825.2    0.00 
 144    6:40   0.17   50.0    82    3.9   315     7.0   825.3    0.00 
 144    6:50   0.17   50.2    84    3.9   278     6.1   825.3    0.00 
 144    7:00   0.14   49.6    85    5.3   249     8.4   825.3    0.00 
 144    7:10   0.13   49.6    85    4.5   246     5.8   825.4    0.00 
 144    7:20   0.18   49.7    84    4.3   274     6.4   825.5    0.00 
 144    7:30   0.28   50.5    83    4.9   282     7.6   825.5    0.00 
 144    7:40   0.26   50.9    81    4.6   275     7.2   825.5    0.00 
 144    7:50   0.27   51.2    80    3.4   282     5.5   825.5    0.00 
 144    8:00   0.29   51.7    79    3.2   251     5.2   825.5    0.00 
 144    8:10   0.36   52.1    77    2.5   257     4.2   825.5    0.00 
 144    8:20   0.39   53.2    74    2.1   232     3.9   825.4    0.00 
 144    8:30   0.69   54.8    69    1.2   236     3.1   825.4    0.00 
 144    8:40   0.74   55.6    64    1.9     9     5.0   825.4    0.00 
 144    8:50   0.77   56.4    64    2.2     3     6.1   825.4    0.00 
 144    9:00   0.83   57.0    63    3.0    36     8.2   825.3    0.00 
 144    9:10   0.74   56.6    61    3.6    11    10.1   825.4    0.00 
 144    9:20   0.61   56.0    62    4.7    24     9.3   825.4    0.00 
 144    9:30   0.91   57.1    59    4.7     5    11.5   825.4    0.00 
 144    9:40   0.94   57.2    57    7.2     3    12.3   825.4    0.00 
 144    9:50   1.03   58.1    58    7.4     8    11.8   825.3    0.00 
 144   10:00   0.95   58.1    58    8.3    14    14.0   825.2    0.00 
 144   10:10   1.01   58.8    53    6.2   346    11.2   825.2    0.00 
 144   10:20   0.73   59.2    51    5.9   356    10.9   825.1    0.00 
 144   10:30   0.57   59.1    52    8.2     3    12.9   825.0    0.00 
 144   10:40   0.84   59.4    50    6.8    10    12.1   824.9    0.00 
 144   10:50   1.06   59.8    51    7.8     8    12.3   824.8    0.00 
 144   11:00   0.86   60.4    52    5.6     1    12.0   824.7    0.00 
 144   11:10   0.02   60.8    51    7.4   345    13.6   824.5    0.00 
 144   11:20   0.62   60.4    50    6.0   349    14.9   824.5    0.00 
 144   11:30   0.81   60.7    51    7.0   322    11.5   824.5    0.00 
 144   11:40   0.91   61.2    50    5.4   299    13.1   824.5    0.00 
 144   11:50   0.83   62.2    47    2.5   332     8.4   824.5    0.00 
 144   12:00   0.30   60.5    50    6.0   332    11.3   824.3    0.00 
 144   12:10   0.67   60.2    53    8.9    26    14.1   824.1    0.00 
 144   12:20   0.66   60.8    50    7.6    32    12.9   824.1    0.00 
 144   12:30   0.40   60.4    47    4.4    23     9.3   824.1    0.00 
 144   12:40   0.33   60.4    45    3.0   102     7.9   824.1    0.00 
 144   12:50   0.14   58.5    57   11.2   303    20.5   824.2    0.00 
 144   13:00   0.09   55.9    67    9.8   284    16.9   824.5    0.00 
 144   13:10   0.05   52.4    74   14.8     5    25.4   824.9    0.00 
 144   13:20   0.16   49.6    85   16.4    23    23.6   824.8    0.00 
 144   13:30   0.28   50.4    84   13.4    28    17.9   824.8    0.00 
 144   13:40   0.49   52.0    79   13.6    31    18.3   824.7    0.00 
 144   13:50   0.59   53.8    74   13.1    27    17.0   824.6    0.00 
 144   14:00   0.47   54.8    69   12.0    33    15.9   824.5    0.00 
 144   14:10   0.51   55.3    66    9.5    25    14.3   824.4    0.00 
 144   14:20   0.54   56.3    65    9.5    20    14.0   824.4    0.00 
 144   14:30   0.85   57.7    63   10.8    18    14.8   824.4    0.00 
 144   14:40   0.82   58.2    60   10.0    18    14.8   824.5    0.00 
 144   14:50   0.69   58.1    57    9.3    19    13.1   824.5    0.00 
 144   15:00   0.65   58.2    56    8.9    15    13.7   824.5    0.00 
 144   15:10   0.60   57.8    57    7.6    31    11.6   824.5    0.00 
 144   15:20   0.42   57.5    56    8.7    21    14.2   824.5    0.00 
 144   15:30   0.26   56.8    56    6.1   360    10.3   824.7    0.00 
 144   15:40   0.21   56.6    57    6.3   359    10.2   824.8    0.00 
 144   15:50   0.13   56.1    58    4.8   332     9.2   824.7    0.00 
 144   16:00   0.08   56.1    58    3.2   289     8.0   824.6    0.00 
 144   16:10   0.10   55.9    63    5.3   256     8.2   824.5    0.00 
 144   16:20   0.10   55.6    67    5.7   260     8.1   824.3    0.00 
 144   16:30   0.06   55.1    71    8.7   254    11.8   824.4    0.00 
 144   16:40   0.04   54.0    73    8.7   260    12.3   824.4    0.00 
 144   16:50   0.09   52.7    79    3.7   186     5.7   824.1    0.01 
 144   17:00   0.10   52.9    79    5.3   184     7.3   823.9    0.00 
 144   17:10   0.10   53.3    78    4.8   192     7.2   823.9    0.00 
 144   17:20   0.09   53.5    75    3.1   175     4.8   823.7    0.00 
 144   17:30   0.07   53.6    74    3.4   107     4.7   823.7    0.00 
 144   17:40   0.07   53.3    77    3.4   100     4.4   823.8    0.00 
 144   17:50   0.06   53.2    79    3.8    81     5.2   823.9    0.00 
 144   18:00   0.05   53.2    79    3.3    62     4.4   824.0    0.00 
 144   18:10   0.04   53.3    78    2.6    43     3.4   824.1    0.00 
 144   18:20   0.03   53.1    79    3.7    42     4.7   824.2    0.00 
 144   18:30   0.03   52.8    80    2.6    21     3.6   824.2    0.00 
 144   18:40   0.02   52.6    82    2.0   332     2.9   824.2    0.00 
 144   18:50   0.01   52.3    84    1.4   326     2.1   824.3    0.00 
 144   19:00   0.01   52.0    83    3.6   143     5.6   824.2    0.00 
 144   19:10   0.00   51.4    82    3.7   125     5.8   824.2    0.00 

Return to Clover Valley graphs page.


Western Regional Climate Center,wrcc@dri.edu